Time;durP1;ratioP1;P1;durP2;ratioP2;P2;SDS_P1;SDS_P2;PMS_P1;PMS_P2;Temp;Humidity;BMP_temperature;BMP_pressure;BME280_temperature;BME280_humidity;BME280_pressure;Samples;Min_cycle;Max_cycle;Signal;HPM_P1;HPM_P2
2022/05/28 00:02:21;;;;;;;13.60;4.60;;;;;;;12.22;86.54;102393.63;7378302;19;20558;-73
2022/05/28 00:04:52;;;;;;;14.70;3.33;;;;;;;12.27;86.57;102385.88;7376203;19;20023;-72
2022/05/28 00:07:22;;;;;;;14.75;3.35;;;;;;;12.29;86.55;102386.81;7377869;19;20006;-73
2022/05/28 00:09:52;;;;;;;19.48;4.13;;;;;;;12.31;87.40;102382.47;7377419;19;20061;-73
2022/05/28 00:12:29;;;;;;;11.32;3.25;;;;;;;12.36;86.94;102380.88;7375437;19;20051;-73
2022/05/28 00:15:01;;;;;;;16.13;3.83;;;;;;;12.32;87.24;102373.75;7377820;19;20007;-73
2022/05/28 00:17:31;;;;;;;12.40;3.25;;;;;;;12.37;87.44;102374.78;7378600;19;20018;-72
2022/05/28 00:20:01;;;;;;;13.57;3.22;;;;;;;12.35;87.65;102372.09;7376375;19;20010;-73
2022/05/28 00:22:31;;;;;;;10.95;3.28;;;;;;;12.32;87.50;102368.50;7375764;19;20014;-73
2022/05/28 00:25:01;;;;;;;11.75;3.38;;;;;;;12.38;86.50;102369.56;7376594;19;20463;-73
2022/05/28 00:27:31;;;;;;;16.40;3.75;;;;;;;12.39;86.10;102365.19;7376822;19;20015;-73
2022/05/28 00:30:04;;;;;;;15.60;3.70;;;;;;;12.36;87.18;102363.38;7373642;19;20011;-73
2022/05/28 00:32:34;;;;;;;12.90;3.88;;;;;;;12.32;87.52;102363.22;7374565;19;20036;-73
2022/05/28 00:35:06;;;;;;;13.88;3.40;;;;;;;12.30;87.04;102359.66;7373998;19;20040;-73
2022/05/28 00:37:36;;;;;;;17.25;4.15;;;;;;;12.29;87.29;102364.03;7374609;19;20745;-73
2022/05/28 00:40:08;;;;;;;13.98;2.97;;;;;;;12.28;86.86;102372.75;7382114;19;20017;-73
2022/05/28 00:42:38;;;;;;;14.07;3.10;;;;;;;12.25;87.09;102364.78;7379947;19;20101;-72
2022/05/28 00:45:12;;;;;;;14.10;4.32;;;;;;;12.22;87.75;102374.31;7383582;19;20049;-72
2022/05/28 00:47:50;;;;;;;23.48;3.35;;;;;;;12.19;87.96;102367.22;7381772;19;20014;-73
2022/05/28 00:50:22;;;;;;;16.42;3.30;;;;;;;12.23;88.23;102365.56;7380410;19;20465;-73
2022/05/28 00:52:52;;;;;;;13.57;3.28;;;;;;;12.21;88.35;102367.25;7380136;19;20017;-71
2022/05/28 00:55:22;;;;;;;12.10;2.65;;;;;;;12.19;89.26;102374.22;7381224;19;20074;-72
2022/05/28 00:57:53;;;;;;;12.13;2.83;;;;;;;12.22;89.54;102371.69;7381993;19;20015;-72
2022/05/28 01:00:26;;;;;;;12.43;3.55;;;;;;;12.19;89.97;102377.75;7379930;19;20006;-72
2022/05/28 01:03:00;;;;;;;15.52;3.00;;;;;;;12.19;90.26;102371.59;7379144;19;20003;-71
2022/05/28 01:05:35;;;;;;;16.15;2.90;;;;;;;12.13;91.33;102377.53;7381083;19;20044;-72
2022/05/28 01:08:15;;;;;;;13.73;2.95;;;;;;;12.16;90.96;102374.13;7379811;19;20026;-72
2022/05/28 01:10:54;;;;;;;10.32;2.80;;;;;;;12.13;92.24;102376.66;7385376;19;20025;-72
2022/05/28 01:13:32;;;;;;;17.65;3.63;;;;;;;12.13;92.91;102374.03;7382706;19;20031;-72
2022/05/28 01:16:11;;;;;;;12.02;2.60;;;;;;;12.06;93.38;102367.69;7383511;19;20007;-72
2022/05/28 01:18:48;;;;;;;26.20;3.90;;;;;;;12.04;94.04;102375.50;7382432;19;20685;-72
2022/05/28 01:21:31;;;;;;;11.70;2.58;;;;;;;12.03;94.17;102370.22;7383114;19;21343;-72
2022/05/28 01:24:08;;;;;;;12.60;2.30;;;;;;;11.96;94.83;102370.84;7383415;19;20014;-72
2022/05/28 01:26:57;;;;;;;10.35;4.40;;;;;;;11.91;95.75;102378.59;7380916;19;20022;-72
2022/05/28 01:29:32;;;;;;;10.00;3.13;;;;;;;11.91;96.29;102375.97;7384080;19;20018;-72
2022/05/28 01:32:03;;;;;;;12.95;3.00;;;;;;;11.92;96.31;102363.72;7382222;19;20011;-72
2022/05/28 01:34:35;;;;;;;19.23;3.55;;;;;;;11.87;96.91;102367.94;7380839;19;20010;-72
2022/05/28 01:37:05;;;;;;;9.07;2.80;;;;;;;11.84;97.40;102367.84;7381665;19;19999;-72
2022/05/28 01:39:37;;;;;;;23.58;3.67;;;;;;;11.83;97.86;102366.06;7378674;19;20011;-71
2022/05/28 01:42:12;;;;;;;10.23;3.10;;;;;;;11.78;97.41;102364.16;7377121;19;20425;-72
2022/05/28 01:44:44;;;;;;;16.52;2.97;;;;;;;11.75;98.11;102361.41;7382742;19;20022;-72
2022/05/28 01:47:15;;;;;;;14.38;3.45;;;;;;;11.75;97.98;102365.75;7380663;19;20177;-72
2022/05/28 01:49:48;;;;;;;12.02;3.20;;;;;;;11.70;98.40;102360.34;7379428;19;20023;-72
2022/05/28 01:52:21;;;;;;;10.63;2.43;;;;;;;11.63;99.05;102362.72;7377012;19;20010;-72
2022/05/28 01:54:53;;;;;;;10.53;3.77;;;;;;;11.57;99.04;102358.16;7381030;19;20022;-72
2022/05/28 01:57:26;;;;;;;12.77;3.22;;;;;;;11.55;98.99;102348.44;7381561;19;20263;-72
2022/05/28 01:59:57;;;;;;;10.80;2.10;;;;;;;11.51;99.49;102352.72;7381161;19;20018;-72
2022/05/28 02:02:27;;;;;;;13.68;2.90;;;;;;;11.44;99.84;102356.88;7377019;19;20133;-72
2022/05/28 02:04:57;;;;;;;13.10;3.15;;;;;;;11.37;100.00;102364.50;7381168;19;20006;-72
2022/05/28 02:07:27;;;;;;;8.93;2.40;;;;;;;11.37;100.00;102359.25;7381228;19;20731;-72
2022/05/28 02:10:03;;;;;;;9.68;3.67;;;;;;;11.33;100.00;102367.88;7379579;19;20010;-72
2022/05/28 02:12:40;;;;;;;14.65;2.88;;;;;;;11.34;100.00;102362.69;7378573;19;20007;-72
2022/05/28 02:15:25;;;;;;;12.30;2.95;;;;;;;11.31;99.90;102356.44;7380981;19;20536;-72
2022/05/28 02:17:58;;;;;;;9.10;2.20;;;;;;;11.29;100.00;102359.00;7381432;19;20014;-72
2022/05/28 02:20:38;;;;;;;11.52;3.33;;;;;;;11.30;100.00;102358.16;7379126;19;20030;-72
2022/05/28 02:23:28;;;;;;;11.02;2.65;;;;;;;11.27;100.00;102352.81;7379228;19;20014;-72
2022/05/28 02:26:02;;;;;;;13.35;2.80;;;;;;;11.24;100.00;102362.31;7379175;19;20038;-72
2022/05/28 02:28:37;;;;;;;23.85;4.53;;;;;;;11.22;100.00;102359.63;7378844;19;20006;-72
2022/05/28 02:31:14;;;;;;;17.55;2.78;;;;;;;11.18;100.00;102349.84;7377499;19;20073;-72
2022/05/28 02:33:46;;;;;;;15.32;3.20;;;;;;;11.18;100.00;102352.47;7376297;19;20711;-73
2022/05/28 02:36:19;;;;;;;9.07;2.33;;;;;;;11.18;100.00;102348.97;7375320;19;20699;-72
2022/05/28 02:38:50;;;;;;;11.20;3.10;;;;;;;11.14;100.00;102350.59;7376852;19;20014;-71
2022/05/28 02:41:21;;;;;;;11.35;3.10;;;;;;;11.17;100.00;102349.81;7373992;19;20030;-72
2022/05/28 02:43:56;;;;;;;10.27;2.90;;;;;;;11.12;100.00;102349.66;7371456;19;20010;-71
2022/05/28 02:46:26;;;;;;;16.70;2.85;;;;;;;11.14;99.53;102348.84;7376086;19;20562;-72
2022/05/28 02:48:55;;;;;;;10.02;3.33;;;;;;;11.11;99.34;102351.38;7378584;19;20043;-72
2022/05/28 02:51:26;;;;;;;7.05;2.10;;;;;;;11.13;98.21;102348.81;7376362;19;20015;-72
2022/05/28 02:53:56;;;;;;;12.50;3.67;;;;;;;11.11;97.74;102350.47;7379303;19;20022;-72
2022/05/28 02:56:26;;;;;;;9.40;1.90;;;;;;;11.13;97.52;102348.81;7379473;19;20056;-72
2022/05/28 02:58:59;;;;;;;7.38;2.28;;;;;;;11.08;97.45;102345.13;7377655;19;20017;-72
2022/05/28 03:01:33;;;;;;;10.48;2.10;;;;;;;11.05;97.67;102351.16;7375184;19;20022;-71
2022/05/28 03:04:06;;;;;;;17.13;3.00;;;;;;;11.02;97.57;102344.91;7374853;19;20019;-72
2022/05/28 03:06:37;;;;;;;9.63;2.20;;;;;;;10.99;97.35;102350.03;7379889;19;20011;-72
2022/05/28 03:09:09;;;;;;;8.63;1.98;;;;;;;11.01;97.68;102353.63;7377277;19;20015;-71
2022/05/28 03:11:40;;;;;;;12.90;2.10;;;;;;;11.00;97.51;102357.09;7376237;19;20019;-70
2022/05/28 03:14:13;;;;;;;15.20;2.65;;;;;;;10.99;97.57;102356.19;7376615;19;20025;-73
2022/05/28 03:16:43;;;;;;;10.53;2.70;;;;;;;10.97;97.48;102354.34;7377496;19;20031;-72
2022/05/28 03:19:13;;;;;;;10.70;3.13;;;;;;;10.96;97.34;102355.19;7376731;19;20105;-71
2022/05/28 03:21:43;;;;;;;7.18;1.98;;;;;;;10.94;96.92;102355.13;7377023;19;20021;-72
2022/05/28 03:24:14;;;;;;;10.75;2.25;;;;;;;10.96;96.61;102356.09;7373709;19;20018;-72
2022/05/28 03:26:44;;;;;;;10.98;3.15;;;;;;;10.94;95.65;102360.38;7377346;19;20018;-72
2022/05/28 03:29:17;;;;;;;11.95;2.92;;;;;;;10.94;95.06;102363.00;7377395;19;20015;-72
2022/05/28 03:31:47;;;;;;;7.70;2.10;;;;;;;10.92;94.63;102362.06;7380933;19;20113;-71
2022/05/28 03:34:16;;;;;;;8.70;2.20;;;;;;;10.93;94.30;102362.94;7375035;19;20038;-73
2022/05/28 03:36:47;;;;;;;4.97;1.80;;;;;;;10.89;94.28;102356.69;7379847;19;20018;-73
2022/05/28 03:39:17;;;;;;;6.22;1.85;;;;;;;10.87;94.08;102365.34;7376147;19;20363;-72
2022/05/28 03:41:49;;;;;;;7.60;2.10;;;;;;;10.81;94.47;102371.28;7379050;19;20018;-71
2022/05/28 03:44:21;;;;;;;10.00;2.08;;;;;;;10.76;94.60;102367.59;7378400;19;20015;-71
2022/05/28 03:46:51;;;;;;;8.20;2.03;;;;;;;10.79;94.09;102365.06;7378700;19;20439;-72
2022/05/28 03:49:24;;;;;;;6.38;1.60;;;;;;;10.79;93.54;102365.97;7380687;19;20018;-72
2022/05/28 03:51:54;;;;;;;6.97;2.00;;;;;;;10.79;92.68;102375.56;7380429;19;20010;-72
2022/05/28 03:54:24;;;;;;;6.95;1.90;;;;;;;10.78;91.54;102361.56;7380721;19;20040;-72
2022/05/28 03:57:00;;;;;;;5.75;1.75;;;;;;;10.76;91.60;102363.22;7379222;19;20066;-72
2022/05/28 03:59:34;;;;;;;5.50;2.20;;;;;;;10.69;91.37;102363.84;7380211;19;20041;-72
2022/05/28 04:02:04;;;;;;;9.43;2.28;;;;;;;10.68;91.38;102366.41;7378151;19;20022;-72
2022/05/28 04:04:34;;;;;;;10.20;1.90;;;;;;;10.66;91.31;102374.22;7378122;19;20042;-72
2022/05/28 04:07:04;;;;;;;7.43;1.98;;;;;;;10.63;90.32;102373.22;7376758;19;20738;-71
2022/05/28 04:09:34;;;;;;;10.60;2.33;;;;;;;10.62;89.44;102374.06;7375153;19;20425;-73
2022/05/28 04:12:04;;;;;;;6.50;1.65;;;;;;;10.60;89.10;102375.72;7380144;19;20018;-71
2022/05/28 04:14:39;;;;;;;5.47;1.80;;;;;;;10.62;88.17;102374.94;7378428;19;20018;-72
2022/05/28 04:17:09;;;;;;;4.55;1.60;;;;;;;10.62;87.56;102381.91;7378918;19;20023;-71
2022/05/28 04:19:41;;;;;;;4.88;1.90;;;;;;;10.64;87.61;102383.78;7376253;19;20145;-72
2022/05/28 04:22:11;;;;;;;5.82;1.75;;;;;;;10.68;87.05;102385.66;7374875;19;20066;-72
2022/05/28 04:24:41;;;;;;;8.18;2.20;;;;;;;10.71;87.23;102385.78;7374205;19;20114;-71
2022/05/28 04:27:11;;;;;;;2.80;1.52;;;;;;;10.69;88.09;102383.94;7376776;19;20514;-72
2022/05/28 04:29:44;;;;;;;4.95;1.50;;;;;;;10.69;87.98;102386.56;7375620;19;20018;-74
2022/05/28 04:32:14;;;;;;;7.10;2.00;;;;;;;10.70;87.97;102399.75;7374542;19;20085;-72
2022/05/28 04:34:45;;;;;;;10.52;2.20;;;;;;;10.70;88.47;102385.72;7375382;19;20018;-73
2022/05/28 04:37:15;;;;;;;10.52;2.22;;;;;;;10.75;87.94;102398.19;7369367;19;20781;-72
2022/05/28 04:39:45;;;;;;;6.07;1.70;;;;;;;10.79;86.33;102391.31;7373055;19;20571;-73
2022/05/28 04:42:15;;;;;;;7.80;2.42;;;;;;;10.82;85.98;102400.19;7370646;19;20614;-71
2022/05/28 04:44:48;;;;;;;6.25;1.88;;;;;;;10.91;85.66;102393.50;7372005;19;20471;-73
2022/05/28 04:47:18;;;;;;;7.35;2.17;;;;;;;10.99;85.01;102387.69;7379353;19;20014;-73
2022/05/28 04:49:48;;;;;;;4.75;1.60;;;;;;;11.08;84.13;102390.66;7375084;19;20011;-73
2022/05/28 04:52:19;;;;;;;4.18;1.67;;;;;;;11.17;83.59;102392.72;7376740;19;20014;-71
2022/05/28 04:54:49;;;;;;;9.13;2.67;;;;;;;11.19;83.26;102401.53;7372476;19;20066;-73
2022/05/28 04:57:18;;;;;;;10.48;1.80;;;;;;;11.21;82.42;102389.34;7374200;19;20010;-71
2022/05/28 04:59:51;;;;;;;5.72;1.52;;;;;;;11.31;82.02;102394.09;7375162;19;20015;-72
2022/05/28 05:02:21;;;;;;;5.80;1.83;;;;;;;11.45;81.84;102399.78;7377341;19;20018;-71
2022/05/28 05:04:56;;;;;;;3.58;1.52;;;;;;;11.53;81.35;102402.69;7369536;19;20451;-71
2022/05/28 05:07:27;;;;;;;4.40;1.73;;;;;;;11.53;81.05;102398.31;7374734;19;20045;-72
2022/05/28 05:09:57;;;;;;;3.60;1.73;;;;;;;11.72;81.19;102403.34;7378533;19;20029;-72
2022/05/28 05:12:27;;;;;;;5.43;1.83;;;;;;;11.83;80.60;102403.75;7373306;19;20011;-72
2022/05/28 05:14:59;;;;;;;8.85;2.00;;;;;;;11.92;79.87;102404.03;7375915;19;20487;-72
2022/05/28 05:17:29;;;;;;;7.00;1.80;;;;;;;11.93;79.04;102410.19;7373046;19;20404;-72
2022/05/28 05:20:00;;;;;;;7.47;1.90;;;;;;;11.83;79.31;102410.75;7373568;19;20034;-73
2022/05/28 05:22:30;;;;;;;7.35;1.90;;;;;;;11.95;78.79;102419.94;7372912;19;20014;-72
2022/05/28 05:25:01;;;;;;;11.25;2.10;;;;;;;12.01;77.57;102413.97;7375810;19;20566;-73
2022/05/28 05:27:31;;;;;;;8.00;2.33;;;;;;;12.23;75.82;102415.56;7376972;19;20007;-73
2022/05/28 05:30:03;;;;;;;6.13;2.00;;;;;;;12.23;75.73;102412.91;7379689;19;20010;-71
2022/05/28 05:32:34;;;;;;;5.47;1.63;;;;;;;12.27;74.55;102412.16;7379416;19;20367;-71
2022/05/28 05:35:04;;;;;;;7.03;2.20;;;;;;;12.46;73.32;102422.41;7379692;19;20007;-72
2022/05/28 05:37:34;;;;;;;11.38;2.15;;;;;;;12.62;72.94;102418.47;7381491;19;20086;-71
2022/05/28 05:40:04;;;;;;;6.75;2.15;;;;;;;12.52;73.58;102424.31;7378811;19;20053;-71
2022/05/28 05:42:35;;;;;;;5.28;1.92;;;;;;;12.36;73.76;102422.97;7382185;19;20019;-72
2022/05/28 05:45:09;;;;;;;5.38;1.83;;;;;;;12.51;74.04;102428.69;7379792;19;20018;-71
2022/05/28 05:47:39;;;;;;;6.88;2.15;;;;;;;12.58;73.21;102429.75;7379643;19;20007;-71
2022/05/28 05:50:10;;;;;;;5.25;1.75;;;;;;;12.49;73.43;102435.63;7378411;19;20014;-72
2022/05/28 05:52:40;;;;;;;10.90;1.80;;;;;;;12.20;74.29;102432.13;7378561;19;20039;-72
2022/05/28 05:55:19;;;;;;;8.85;2.10;;;;;;;12.09;75.72;102431.78;7379572;19;20018;-73
2022/05/28 05:57:49;;;;;;;5.93;1.80;;;;;;;12.10;75.89;102432.69;7379187;19;20440;-71
2022/05/28 06:00:22;;;;;;;4.28;1.67;;;;;;;11.87;75.90;102431.91;7379470;19;20783;-72
2022/05/28 06:02:52;;;;;;;5.15;1.75;;;;;;;12.36;74.99;102437.03;7377194;19;20018;-72
2022/05/28 06:05:22;;;;;;;8.45;2.35;;;;;;;12.45;73.12;102439.06;7380068;19;20016;-72
2022/05/28 06:07:52;;;;;;;7.07;2.15;;;;;;;12.29;72.84;102442.94;7378710;19;20061;-72
2022/05/28 06:10:23;;;;;;;6.60;1.50;;;;;;;12.84;72.03;102444.59;7380393;19;20019;-73
2022/05/28 06:12:53;;;;;;;9.88;2.00;;;;;;;13.34;70.80;102432.00;7375223;19;20018;-71
2022/05/28 06:15:25;;;;;;;8.75;1.83;;;;;;;13.68;68.50;102434.66;7380313;19;20015;-72
2022/05/28 06:17:55;;;;;;;7.05;1.33;;;;;;;13.85;66.46;102435.09;7379653;19;20018;-71
2022/05/28 06:20:25;;;;;;;5.10;1.80;;;;;;;13.31;67.43;102438.09;7378322;19;20007;-71
2022/05/28 06:22:55;;;;;;;8.60;1.88;;;;;;;13.39;67.51;102441.81;7378141;19;20043;-72
2022/05/28 06:25:27;;;;;;;9.50;2.15;;;;;;;13.28;69.17;102445.91;7375963;19;20037;-71
2022/05/28 06:27:57;;;;;;;9.65;2.35;;;;;;;12.96;70.40;102451.97;7379263;19;20007;-72
2022/05/28 06:30:30;;;;;;;7.68;1.92;;;;;;;13.23;69.47;102449.25;7377554;19;20043;-73
2022/05/28 06:33:00;;;;;;;8.55;2.45;;;;;;;13.48;67.98;102446.44;7379717;19;20018;-72
2022/05/28 06:35:32;;;;;;;5.05;1.67;;;;;;;13.77;67.52;102444.53;7373253;19;20014;-73
2022/05/28 06:38:02;;;;;;;8.32;3.25;;;;;;;14.36;65.56;102440.72;7375494;19;20271;-72
2022/05/28 06:40:33;;;;;;;9.07;1.80;;;;;;;15.09;64.88;102438.81;7374626;19;20011;-72
2022/05/28 06:43:03;;;;;;;3.95;1.95;;;;;;;14.69;63.79;102450.28;7378294;19;20029;-72
2022/05/28 06:45:35;;;;;;;11.15;1.88;;;;;;;14.61;64.58;102446.56;7377275;19;20015;-72
2022/05/28 06:48:06;;;;;;;8.50;2.90;;;;;;;14.90;63.53;102444.56;7376699;19;20018;-73
2022/05/28 06:53:19;;;;;;;10.95;2.50;;;;;;;13.28;66.54;102458.19;7372545;19;20409;-73
2022/05/28 06:55:49;;;;;;;5.95;2.03;;;;;;;13.81;66.58;102456.97;7379000;19;20017;-73
2022/05/28 06:58:20;;;;;;;10.95;1.98;;;;;;;14.26;65.70;102451.03;7376979;19;20144;-73
2022/05/28 07:00:53;;;;;;;5.28;1.60;;;;;;;14.27;63.67;102452.81;7382069;19;20014;-73
2022/05/28 07:03:27;;;;;;;7.13;1.70;;;;;;;14.43;63.94;102452.34;7379361;19;20052;-73
2022/05/28 07:05:58;;;;;;;8.00;2.20;;;;;;;14.43;62.77;102462.91;7379051;19;20494;-72
2022/05/28 07:08:29;;;;;;;9.60;2.17;;;;;;;13.92;63.62;102463.41;7379279;19;20558;-72
2022/05/28 07:11:01;;;;;;;5.72;1.65;;;;;;;13.50;65.30;102467.59;7379475;19;20014;-71
2022/05/28 07:13:33;;;;;;;6.95;1.92;;;;;;;13.39;66.81;102465.53;7378968;19;20011;-71
2022/05/28 07:16:07;;;;;;;7.55;2.05;;;;;;;13.28;67.04;102463.47;7379713;19;20036;-72
2022/05/28 07:18:39;;;;;;;11.90;2.67;;;;;;;12.87;69.26;102467.50;7379797;19;20438;-72
2022/05/28 07:21:10;;;;;;;5.32;1.88;;;;;;;12.93;69.78;102481.75;7378596;19;20011;-72
2022/05/28 07:23:41;;;;;;;7.53;2.35;;;;;;;12.78;70.19;102463.75;7378248;19;20015;-73
2022/05/28 07:26:13;;;;;;;5.93;2.22;;;;;;;12.75;70.00;102474.19;7377827;19;20006;-73
2022/05/28 07:28:45;;;;;;;10.00;2.03;;;;;;;12.72;70.19;102481.97;7381385;19;20022;-74
2022/05/28 07:31:21;;;;;;;11.95;2.28;;;;;;;13.31;68.34;102482.00;7379668;19;20031;-73
2022/05/28 07:33:52;;;;;;;10.73;2.10;;;;;;;13.81;66.08;102467.50;7377638;19;20014;-72
2022/05/28 07:36:26;;;;;;;7.28;2.20;;;;;;;14.77;63.07;102469.81;7377855;19;20031;-72
2022/05/28 07:38:57;;;;;;;8.93;2.22;;;;;;;15.03;61.24;102466.00;7377221;19;20011;-72
2022/05/28 07:41:27;;;;;;;9.18;2.15;;;;;;;13.87;61.78;102475.56;7377451;19;20018;-72
2022/05/28 07:43:59;;;;;;;9.18;2.15;;;;;;;13.31;64.55;102487.25;7375160;19;20010;-73
2022/05/28 07:46:34;;;;;;;8.38;1.85;;;;;;;13.45;64.23;102483.25;7378497;19;20014;-73
2022/05/28 07:49:07;;;;;;;10.70;2.95;;;;;;;13.81;64.04;102485.97;7378214;19;20006;-73
2022/05/28 07:51:38;;;;;;;5.88;1.77;;;;;;;13.94;62.46;102472.25;7376903;19;20023;-73
2022/05/28 07:54:09;;;;;;;6.70;2.20;;;;;;;14.79;61.31;102469.84;7373410;19;20170;-72
2022/05/28 07:56:40;;;;;;;9.20;2.95;;;;;;;14.70;60.03;102466.16;7376607;19;20011;-72
2022/05/28 07:59:09;;;;;;;8.23;2.20;;;;;;;14.56;61.63;102475.50;7377536;19;20507;-73
2022/05/28 08:01:42;;;;;;;6.93;2.00;;;;;;;14.81;60.98;102474.31;7376367;19;20010;-73
2022/05/28 08:04:13;;;;;;;10.23;2.95;;;;;;;14.42;60.91;102479.63;7377671;19;20378;-73
2022/05/28 08:06:46;;;;;;;7.88;3.15;;;;;;;13.87;61.81;102474.69;7378593;19;20479;-71
2022/05/28 08:09:16;;;;;;;8.55;2.72;;;;;;;13.74;63.29;102476.09;7377923;19;20011;-73
2022/05/28 08:11:46;;;;;;;10.82;3.55;;;;;;;13.88;62.13;102473.84;7380156;19;20082;-73
2022/05/28 08:14:16;;;;;;;8.50;2.25;;;;;;;14.19;61.82;102475.50;7374687;19;20011;-74
2022/05/28 08:16:49;;;;;;;8.07;2.17;;;;;;;13.84;61.07;102467.59;7377989;19;20014;-72
2022/05/28 08:19:19;;;;;;;11.23;2.10;;;;;;;14.55;59.54;102476.41;7376590;19;20074;-72
2022/05/28 08:24:31;;;;;;;6.32;1.98;;;;;;;15.10;55.22;102466.13;7377707;19;20793;-73
2022/05/28 08:27:01;;;;;;;6.15;2.00;;;;;;;14.55;54.14;102473.75;7372856;19;20040;-73
2022/05/28 08:29:31;;;;;;;4.97;1.60;;;;;;;14.59;55.04;102472.94;7378988;19;20011;-73
2022/05/28 08:32:04;;;;;;;6.05;1.80;;;;;;;14.58;54.66;102473.78;7376814;19;20007;-73
2022/05/28 08:34:34;;;;;;;7.70;2.03;;;;;;;14.52;55.74;102476.34;7375760;19;20195;-72
2022/05/28 08:37:04;;;;;;;8.95;1.83;;;;;;;15.25;55.83;102461.13;7372276;19;20078;-72
2022/05/28 08:39:34;;;;;;;9.30;3.00;;;;;;;14.83;56.13;102466.41;7372759;19;20006;-73
2022/05/28 08:42:04;;;;;;;11.80;2.50;;;;;;;14.45;58.13;102468.22;7371183;19;20412;-72
2022/05/28 08:44:39;;;;;;;6.72;3.63;;;;;;;14.03;58.81;102480.38;7376409;19;20066;-72
2022/05/28 08:47:21;;;;;;;5.97;2.08;;;;;;;14.50;59.03;102477.16;7373224;19;20015;-73
2022/05/28 08:49:53;;;;;;;6.20;1.83;;;;;;;14.21;59.17;102479.97;7371670;19;20002;-74
2022/05/28 08:52:28;;;;;;;11.68;2.67;;;;;;;14.08;60.28;102481.41;7371925;19;20011;-72
2022/05/28 08:55:03;;;;;;;9.07;2.35;;;;;;;14.01;60.47;102487.38;7369107;19;20029;-74
2022/05/28 08:57:53;;;;;;;11.90;2.40;;;;;;;14.44;60.21;102495.50;7370136;19;20392;-73
2022/05/28 09:00:34;;;;;;;10.10;2.30;;;;;;;14.28;60.49;102494.19;7383407;19;20040;-73
2022/05/28 09:03:11;;;;;;;12.52;2.33;;;;;;;14.29;60.90;102488.06;7384330;19;20027;-73
2022/05/28 09:05:50;;;;;;;10.27;3.20;;;;;;;14.23;61.41;102488.81;7383984;19;20014;-73
2022/05/28 09:08:29;;;;;;;6.60;2.08;;;;;;;14.92;60.47;102499.22;7384216;19;20011;-72
2022/05/28 09:11:03;;;;;;;10.57;1.85;;;;;;;15.23;58.74;102490.19;7380740;19;20011;-73
2022/05/28 09:13:40;;;;;;;11.63;2.28;;;;;;;14.80;59.12;102500.69;7383446;19;20072;-72
2022/05/28 09:16:15;;;;;;;12.32;2.50;;;;;;;14.80;59.94;102498.06;7379605;19;20025;-72
2022/05/28 09:18:52;;;;;;;10.13;2.35;;;;;;;15.09;59.98;102494.28;7384495;19;20047;-73
2022/05/28 09:21:22;;;;;;;10.70;2.80;;;;;;;15.41;58.01;102483.47;7384799;19;20003;-72
2022/05/28 09:23:58;;;;;;;5.32;2.08;;;;;;;15.84;58.24;102486.06;7381705;19;20121;-70
2022/05/28 09:26:33;;;;;;;9.38;2.35;;;;;;;16.42;55.22;102480.84;7381785;19;20007;-70
2022/05/28 09:29:17;;;;;;;6.57;3.00;;;;;;;16.14;54.74;102479.50;7372366;19;20048;-71
2022/05/28 09:31:59;;;;;;;8.25;2.22;;;;;;;16.33;52.54;102476.31;7380328;19;20022;-71
2022/05/28 09:34:45;;;;;;;8.20;2.15;;;;;;;15.52;54.80;102476.66;7376932;19;20010;-71
2022/05/28 09:37:25;;;;;;;8.48;2.53;;;;;;;15.36;54.19;102486.03;7376328;19;20043;-72
2022/05/28 09:40:01;;;;;;;7.22;1.88;;;;;;;15.68;53.81;102479.59;7375476;19;20097;-71
2022/05/28 09:42:54;;;;;;;6.88;2.53;;;;;;;15.46;54.46;102479.19;7377575;19;20049;-72
2022/05/28 09:45:31;;;;;;;6.97;2.20;;;;;;;15.75;53.73;102485.00;7373424;19;20483;-73
2022/05/28 09:48:01;;;;;;;10.95;2.38;;;;;;;15.82;53.01;102485.16;7376514;19;20006;-74
2022/05/28 09:50:43;;;;;;;9.25;2.03;;;;;;;15.96;52.68;102475.69;7379500;19;20025;-73
2022/05/28 09:56:01;;;;;;;9.32;1.98;;;;;;;16.20;52.12;102484.91;7380737;19;20011;-75
2022/05/28 09:58:37;;;;;;;8.60;2.13;;;;;;;16.41;50.96;102474.66;7376918;19;20035;-74
2022/05/28 10:01:15;;;;;;;12.38;2.67;;;;;;;16.48;51.67;102471.25;7377904;19;20336;-72
2022/05/28 10:06:34;;;;;;;9.52;2.47;;;;;;;16.14;51.74;102476.88;7377784;19;20021;-72
2022/05/28 10:09:14;;;;;;;;;;;;;;;15.29;53.33;102474.44;7376272;19;20018;-73
2022/05/28 10:11:56;;;;;;;7.03;2.13;;;;;;;15.57;49.28;102477.66;7378030;19;20029;-72
2022/05/28 10:14:30;;;;;;;8.73;2.00;;;;;;;15.26;48.85;102466.47;7378788;19;20035;-72
2022/05/28 10:17:02;;;;;;;4.63;1.90;;;;;;;15.72;48.13;102474.38;7379265;19;20014;-73
2022/05/28 10:19:37;;;;;;;2.95;1.92;;;;;;;16.13;48.66;102478.63;7379921;19;20010;-73
2022/05/28 10:22:24;;;;;;;8.30;1.77;;;;;;;15.61;48.86;102474.19;7375214;19;20070;-73
2022/05/28 10:24:58;;;;;;;10.93;2.25;;;;;;;16.11;49.19;102475.06;7377109;19;20078;-73
2022/05/28 10:27:37;;;;;;;7.63;1.73;;;;;;;16.15;50.93;102468.06;7375674;19;20015;-72
2022/05/28 10:30:11;;;;;;;4.70;1.48;;;;;;;15.64;50.04;102467.19;7376005;19;20267;-72
2022/05/28 10:32:51;;;;;;;9.45;2.03;;;;;;;16.43;47.46;102466.75;7379603;19;20006;-71
2022/05/28 10:35:27;;;;;;;8.95;2.00;;;;;;;17.07;46.59;102452.63;7377575;19;20039;-71
2022/05/28 10:38:12;;;;;;;7.93;2.15;;;;;;;16.59;46.41;102469.63;7379750;19;20040;-70
2022/05/28 10:40:50;;;;;;;5.03;1.60;;;;;;;16.70;46.06;102466.25;7375948;19;20025;-71
2022/05/28 10:43:28;;;;;;;6.60;2.05;;;;;;;16.71;46.36;102473.31;7375719;19;20017;-70
2022/05/28 10:46:07;;;;;;;8.02;1.92;;;;;;;16.26;47.08;102471.78;7377955;19;20378;-71
2022/05/28 10:48:52;;;;;;;4.70;1.83;;;;;;;16.59;46.00;102461.69;7372480;19;20086;-72
2022/05/28 10:51:27;;;;;;;7.45;1.95;;;;;;;17.00;47.19;102470.19;7369021;19;20476;-72
2022/05/28 10:54:21;;;;;;;5.28;1.88;;;;;;;16.40;46.10;102479.94;7368631;19;20002;-73
2022/05/28 10:56:56;;;;;;;10.25;2.83;;;;;;;15.69;48.75;102485.78;7376485;19;20066;-71
2022/05/28 10:59:47;;;;;;;7.57;1.98;;;;;;;15.42;50.38;102474.69;7366795;19;20367;-73
2022/05/28 11:02:36;;;;;;;9.10;2.38;;;;;;;15.29;51.58;102471.81;7369821;19;20023;-74
2022/05/28 11:05:16;;;;;;;14.27;3.22;;;;;;;15.24;50.82;102469.94;7364036;19;20053;-73
2022/05/28 11:08:00;;;;;;;4.88;2.00;;;;;;;15.92;50.70;102462.38;7369050;19;20013;-73
2022/05/28 11:10:56;;;;;;;6.30;1.80;;;;;;;15.27;50.37;102462.94;7373950;19;20375;-74
2022/05/28 11:13:39;;;;;;;7.10;2.00;;;;;;;16.08;49.61;102474.13;7370799;19;20471;-74
2022/05/28 11:16:33;;;;;;;5.80;2.08;;;;;;;15.61;49.64;102460.94;7378912;19;20048;-73
2022/05/28 11:19:18;;;;;;;13.32;3.00;;;;;;;16.27;49.53;102465.63;7378837;19;20453;-72
2022/05/28 11:22:01;;;;;;;8.57;2.85;;;;;;;15.47;49.22;102467.75;7378129;19;20066;-72
2022/05/28 11:24:55;;;;;;;7.45;2.30;;;;;;;16.03;47.05;102467.00;7375741;19;20006;-73
2022/05/28 11:28:01;;;;;;;7.90;1.95;;;;;;;16.26;47.66;102458.53;7364666;19;20010;-74
2022/05/28 11:30:36;;;;;;;17.90;4.15;;;;;;;16.92;48.57;102452.41;7362996;19;20114;-75
2022/05/28 11:33:15;;;;;;;8.30;2.45;;;;;;;16.36;46.82;102455.16;7369362;19;20014;-75
2022/05/28 11:35:49;;;;;;;11.32;2.63;;;;;;;16.61;47.03;102445.81;7369206;19;20011;-75
2022/05/28 11:38:24;;;;;;;14.02;3.22;;;;;;;16.55;47.57;102461.63;7358402;19;20500;-78
2022/05/28 11:41:03;;;;;;;13.13;2.25;;;;;;;16.66;48.68;102449.41;7369938;19;20423;-79
2022/05/28 11:43:42;;;;;;;7.88;2.42;;;;;;;15.98;48.21;102450.16;7373232;19;20482;-74
2022/05/28 11:46:22;;;;;;;9.80;2.33;;;;;;;16.20;48.88;102454.03;7364258;19;20022;-75
2022/05/28 11:51:52;;;;;;;8.55;2.33;;;;;;;16.31;47.54;102456.84;7369824;19;20022;-73
2022/05/28 11:54:33;;;;;;;11.32;2.45;;;;;;;16.54;47.28;102443.94;7356818;19;20017;-73
2022/05/28 11:57:06;;;;;;;10.98;3.15;;;;;;;16.46;48.43;102449.13;7374194;19;20007;-75
2022/05/28 11:59:39;;;;;;;;;;;;;;;16.95;48.63;102447.16;7379281;19;20045;-74
2022/05/28 12:02:14;;;;;;;13.50;2.38;;;;;;;17.24;47.52;102443.09;7380970;19;19978;-74
2022/05/28 12:04:45;;;;;;;10.50;2.35;;;;;;;16.35;48.70;102437.50;7380465;19;20385;-75
2022/05/28 12:07:30;;;;;;;8.55;2.70;;;;;;;16.60;48.22;102444.94;7378029;19;20022;-75